Aviation Digital Data Service (ADDS)

Output produced by METARs form (0218 UTC 29 November 2020)
found at http://www.aviationweather.gov/metar/data/
 
Forecast for: WIHH (HALIM PERDANAKUS, ID)
Text: TAF WIHH 282300Z 2900/3000 21007KT 5000 HZ SCT020
Forecast period: 0000 to 1400 UTC 29 November 2020
Forecast type: FROM: standard forecast or significant change
Winds: from the SSW (210 degrees) at 8 MPH (7 knots; 3.6 m/s)
Visibility: 3 miles (5 km)
Ceiling: at least 12,000 feet AGL
Clouds: scattered clouds at 2000 feet AGL
Weather: HZ  (haze)
Text: TEMPO 2906/2910 28012KT 3000 -TSRA FEW018CB
Forecast period: 0600 to 1000 UTC 29 November 2020
Forecast type: TEMPORARY: The following changes expected for less than half the time period
Winds: from the W (280 degrees) at 14 MPH (12 knots; 6.2 m/s)
Visibility: 1.86 miles (2.99 km)
Ceiling: at least 12,000 feet AGL
Clouds: few clouds at 1800 feet AGL
Weather: -TSRA  (light rain associated with thunderstorm(s))
Text: BECMG 2914/2916 00000KT
Forecast period: 1400 UTC 29 November 2020 to 0000 UTC 30 November 2020
Forecast type: BECOMING: Conditions expected to become as follows by 1600 UTC 29 November 2020
Winds: calm
Visibility: 3 miles (5 km)
Ceiling: at least 12,000 feet AGL
Clouds: scattered clouds at 2000 feet AGL
Weather: HZ  (haze)